Time;durP1;ratioP1;P1;durP2;ratioP2;P2;SDS_P1;SDS_P2;PMS_P1;PMS_P2;Temp;Humidity;BMP_temperature;BMP_pressure;BME280_temperature;BME280_humidity;BME280_pressure;Samples;Min_cycle;Max_cycle;Signal;HPM_P1;HPM_P2
2022/04/13 00:02:01;;;;;;;;;;;;;;;18.71;66.55;101335.50;5024794;28;1588;-35
2022/04/13 00:04:27;;;;;;;;;;;;;;;18.69;65.41;101341.81;5026870;28;1654;-35
2022/04/13 00:06:54;;;;;;;;;;;;;;;19.21;64.84;101328.81;5027057;28;1442;-35
2022/04/13 00:09:22;;;;;;;;;;;;;;;19.42;63.25;101331.63;5022555;28;1426;-35
2022/04/13 00:11:48;;;;;;;;;;;;;;;19.62;64.09;101338.03;5024537;28;1606;-35
2022/04/13 00:14:15;;;;;;;;;;;;;;;19.75;62.50;101334.38;5024761;28;1906;-35
2022/04/13 00:16:42;;;;;;;;;;;;;;;19.91;62.27;101326.75;5026001;28;1098;-35
2022/04/13 00:19:08;;;;;;;;;;;;;;;19.91;61.78;101328.59;5017349;28;1674;-36
2022/04/13 00:21:35;;;;;;;;;;;;;;;20.09;62.59;101335.09;5026447;28;1690;-36
2022/04/13 00:24:01;;;;;;;;;;;;;;;19.98;62.19;101321.75;5024454;28;2068;-35
2022/04/13 00:26:29;;;;;;;;;;;;;;;20.00;62.30;101314.41;5023540;28;1426;-36
2022/04/13 00:28:55;;;;;;;;;;;;;;;19.97;62.74;101325.38;5014475;28;1092;-35
2022/04/13 00:31:22;;;;;;;;;;;;;;;19.94;62.79;101312.25;5026165;28;1781;-35
2022/04/13 00:33:48;;;;;;;;;;;;;;;19.93;61.78;101316.72;5017290;28;1910;-35
2022/04/13 00:36:15;;;;;;;;;;;;;;;19.92;62.77;101307.00;5024757;28;1439;-35
2022/04/13 00:38:41;;;;;;;;;;;;;;;19.91;62.86;101316.00;5025758;28;1092;-35
2022/04/13 00:41:08;;;;;;;;;;;;;;;19.98;61.61;101314.53;5028223;28;2023;-35
2022/04/13 00:43:36;;;;;;;;;;;;;;;19.69;63.28;101316.91;5023792;28;1598;-35
2022/04/13 00:46:02;;;;;;;;;;;;;;;19.30;64.74;101308.47;5024047;28;1614;-35
2022/04/13 00:48:31;;;;;;;;;;;;;;;19.08;65.41;101306.69;5018427;28;1387;-35
2022/04/13 00:50:57;;;;;;;;;;;;;;;18.90;65.18;101302.75;5025415;28;1019;-35
2022/04/13 00:53:24;;;;;;;;;;;;;;;18.85;65.71;101312.03;5025311;28;1898;-35
2022/04/13 00:55:51;;;;;;;;;;;;;;;18.97;64.92;101299.47;5025091;28;1773;-35
2022/04/13 00:58:18;;;;;;;;;;;;;;;19.38;63.87;101300.66;5019073;28;1593;-35
2022/04/13 01:00:49;;;;;;;;;;;;;;;19.65;62.63;101304.72;5026187;28;1783;-35
2022/04/13 01:03:16;;;;;;;;;;;;;;;19.79;63.20;101285.69;5016954;28;1074;-35
2022/04/13 01:05:43;;;;;;;;;;;;;;;19.89;61.81;101292.97;5025236;28;1619;-35
2022/04/13 01:08:09;;;;;;;;;;;;;;;19.95;61.66;101287.09;5025389;28;1781;-35
2022/04/13 01:10:37;;;;;;;;;;;;;;;19.99;61.58;101289.38;5023630;28;1792;-35
2022/04/13 01:13:03;;;;;;;;;;;;;;;19.99;61.38;101285.84;5027683;28;1605;-35
2022/04/13 01:15:30;;;;;;;;;;;;;;;19.89;61.85;101284.91;5028438;28;2053;-35
2022/04/13 01:17:58;;;;;;;;;;;;;;;19.96;61.70;101280.75;5032662;28;1399;-35
2022/04/13 01:20:25;;;;;;;;;;;;;;;19.95;62.22;101285.25;5025107;28;1724;-35
2022/04/13 01:22:53;;;;;;;;;;;;;;;19.79;61.90;101287.50;5027345;28;1511;-35
2022/04/13 01:25:19;;;;;;;;;;;;;;;19.39;63.03;101277.38;5023131;28;1626;-35
2022/04/13 01:27:46;;;;;;;;;;;;;;;19.15;64.75;101280.22;5023242;28;1677;-35
2022/04/13 01:30:12;;;;;;;;;;;;;;;18.95;64.59;101280.00;5029547;28;1562;-35
2022/04/13 01:32:39;;;;;;;;;;;;;;;18.85;65.09;101285.22;5021531;28;1015;-35
2022/04/13 01:35:06;;;;;;;;;;;;;;;18.88;65.37;101294.88;5019051;28;1971;-35
2022/04/13 01:37:33;;;;;;;;;;;;;;;19.39;62.89;101294.31;5024541;28;1677;-35
2022/04/13 01:40:01;;;;;;;;;;;;;;;19.61;62.20;101292.53;5020857;28;1684;-35
2022/04/13 01:42:28;;;;;;;;;;;;;;;19.75;62.22;101283.38;5025094;28;1527;-35
2022/04/13 01:44:55;;;;;;;;;;;;;;;19.94;62.58;101280.88;5024774;28;1615;-35
2022/04/13 01:47:21;;;;;;;;;;;;;;;19.90;62.71;101278.59;5013818;28;999;-35
2022/04/13 01:49:48;;;;;;;;;;;;;;;19.93;62.13;101281.84;5019375;28;1769;-35
2022/04/13 01:52:14;;;;;;;;;;;;;;;19.94;62.51;101294.28;5022966;28;1694;-35
2022/04/13 01:54:41;;;;;;;;;;;;;;;20.03;62.00;101324.88;5025238;28;1910;-35
2022/04/13 01:57:08;;;;;;;;;;;;;;;19.98;61.52;101301.09;5020857;28;1697;-35
2022/04/13 01:59:35;;;;;;;;;;;;;;;19.99;62.56;101310.00;5023005;28;1479;-36
2022/04/13 02:02:04;;;;;;;;;;;;;;;19.97;61.53;101306.59;5089121;23;3597;-62
2022/04/13 02:04:32;;;;;;;;;;;;;;;20.03;62.18;101300.72;5089527;28;1626;-57
2022/04/13 02:06:59;;;;;;;;;;;;;;;20.13;60.98;101300.78;5091642;28;1354;-57
2022/04/13 02:09:25;;;;;;;;;;;;;;;20.18;61.08;101318.22;5091057;28;1183;-57
2022/04/13 02:11:52;;;;;;;;;;;;;;;20.19;62.12;101325.31;5098302;28;1699;-57
2022/04/13 02:14:20;;;;;;;;;;;;;;;20.17;61.89;101327.22;5098011;28;1906;-57
2022/04/13 02:16:46;;;;;;;;;;;;;;;20.14;61.91;101322.16;5098353;28;1050;-61
2022/04/13 02:19:13;;;;;;;;;;;;;;;20.15;61.72;101323.81;5097787;28;1547;-61
2022/04/13 02:21:40;;;;;;;;;;;;;;;20.20;61.09;101326.16;5097742;28;1493;-57
2022/04/13 02:24:07;;;;;;;;;;;;;;;19.75;62.92;101316.44;5098074;28;1548;-61
2022/04/13 02:26:34;;;;;;;;;;;;;;;19.35;63.33;101303.56;5097960;28;1598;-61
2022/04/13 02:29:00;;;;;;;;;;;;;;;19.14;64.35;101321.41;5098385;28;1020;-59
2022/04/13 02:31:28;;;;;;;;;;;;;;;19.08;64.85;101333.47;5097582;28;1747;-61
2022/04/13 02:33:56;;;;;;;;;;;;;;;18.99;63.05;101321.66;5097586;28;1906;-57
2022/04/13 02:36:22;;;;;;;;;;;;;;;19.07;63.68;101321.88;5097784;28;1580;-58
2022/04/13 02:38:49;;;;;;;;;;;;;;;19.67;61.89;101310.81;5098206;28;1073;-61
2022/04/13 02:41:16;;;;;;;;;;;;;;;19.89;61.44;101319.81;5097618;28;1559;-57
2022/04/13 02:43:43;;;;;;;;;;;;;;;20.00;62.37;101319.78;5097711;28;1829;-57
2022/04/13 02:46:09;;;;;;;;;;;;;;;20.25;61.80;101316.72;5097225;28;1368;-57
2022/04/13 02:48:37;;;;;;;;;;;;;;;20.28;60.27;101307.53;5097564;28;1373;-61
2022/04/13 02:51:04;;;;;;;;;;;;;;;20.22;60.56;101329.56;5097112;28;1381;-57
2022/04/13 02:53:31;;;;;;;;;;;;;;;20.24;61.32;101331.13;5097340;28;1076;-60
2022/04/13 02:55:58;;;;;;;;;;;;;;;20.12;61.62;101328.63;5097286;28;1887;-61
2022/04/13 02:58:25;;;;;;;;;;;;;;;20.27;60.84;101333.56;5097417;28;1698;-62
2022/04/13 03:00:51;;;;;;;;;;;;;;;20.24;61.36;101323.06;5096707;28;1631;-57
2022/04/13 03:03:18;;;;;;;;;;;;;;;19.94;61.71;101331.88;5097789;28;970;-61
2022/04/13 03:05:46;;;;;;;;;;;;;;;19.53;63.60;101324.53;5096847;28;1781;-57
2022/04/13 03:08:13;;;;;;;;;;;;;;;19.28;63.49;101338.09;5096918;28;1512;-57
2022/04/13 03:10:39;;;;;;;;;;;;;;;19.11;64.33;101330.53;5097152;28;1785;-57
2022/04/13 03:13:06;;;;;;;;;;;;;;;19.00;64.86;101342.13;5097064;28;1508;-61
2022/04/13 03:15:33;;;;;;;;;;;;;;;19.17;64.31;101353.34;5096966;28;1906;-61
2022/04/13 03:17:59;;;;;;;;;;;;;;;19.74;62.54;101357.69;5097347;28;1028;-57
2022/04/13 03:20:26;;;;;;;;;;;;;;;19.88;61.22;101350.31;5095923;28;1607;-57
2022/04/13 03:22:54;;;;;;;;;;;;;;;19.85;61.40;101360.31;5096871;28;1631;-62
2022/04/13 03:25:20;;;;;;;;;;;;;;;19.51;62.56;101358.66;5096536;28;1615;-57
2022/04/13 03:27:47;;;;;;;;;;;;;;;19.22;64.16;101373.44;5096775;28;1555;-57
2022/04/13 03:30:16;;;;;;;;;;;;;;;19.02;64.59;101372.34;5096768;28;1580;-61
2022/04/13 03:32:43;;;;;;;;;;;;;;;18.93;64.25;101367.69;5097317;28;1040;-57
2022/04/13 03:35:10;;;;;;;;;;;;;;;19.01;63.45;101375.97;5096230;28;1902;-57
2022/04/13 03:37:37;;;;;;;;;;;;;;;19.66;61.61;101371.69;5096489;28;1310;-61
2022/04/13 03:40:06;;;;;;;;;;;;;;;19.86;62.38;101372.75;5096409;28;1428;-60
2022/04/13 03:42:33;;;;;;;;;;;;;;;19.89;62.21;101385.06;5096516;28;1555;-57
2022/04/13 03:45:01;;;;;;;;;;;;;;;20.06;61.12;101378.31;5096135;28;1635;-61
2022/04/13 03:47:28;;;;;;;;;;;;;;;20.22;61.04;101394.84;5096610;28;1023;-60
2022/04/13 03:49:55;;;;;;;;;;;;;;;20.25;60.30;101394.59;5096500;28;1588;-61
2022/04/13 03:52:22;;;;;;;;;;;;;;;20.26;60.83;101384.72;5096220;28;1321;-58
2022/04/13 03:54:48;;;;;;;;;;;;;;;20.30;60.68;101404.13;5096101;28;1971;-57
2022/04/13 03:57:16;;;;;;;;;;;;;;;20.31;60.84;101390.53;5096092;28;1638;-61
2022/04/13 03:59:43;;;;;;;;;;;;;;;20.36;60.78;101408.97;5095747;28;1321;-57
2022/04/13 04:02:10;;;;;;;;;;;;;;;20.20;60.38;101407.56;5096116;28;1332;-61
2022/04/13 04:04:36;;;;;;;;;;;;;;;19.69;61.98;101408.13;5095656;28;1429;-61
2022/04/13 04:07:03;;;;;;;;;;;;;;;19.33;63.65;101412.81;5095939;28;1361;-61
2022/04/13 04:09:29;;;;;;;;;;;;;;;19.12;63.05;101414.50;5095763;28;1294;-61
2022/04/13 04:11:56;;;;;;;;;;;;;;;18.99;63.48;101414.63;5095839;28;1270;-58
2022/04/13 04:14:24;;;;;;;;;;;;;;;18.95;64.31;101421.19;5095426;28;1902;-57
2022/04/13 04:16:51;;;;;;;;;;;;;;;19.41;63.23;101426.44;5096394;28;978;-57
2022/04/13 04:19:17;;;;;;;;;;;;;;;19.88;60.96;101417.44;5095751;28;1582;-61
2022/04/13 04:21:44;;;;;;;;;;;;;;;20.04;61.14;101425.91;5095594;28;1408;-61
2022/04/13 04:24:10;;;;;;;;;;;;;;;19.67;62.79;101421.69;5095480;28;1864;-61
2022/04/13 04:26:37;;;;;;;;;;;;;;;19.34;62.44;101433.28;5095564;28;1369;-61
2022/04/13 04:29:04;;;;;;;;;;;;;;;19.11;63.35;101429.72;5093507;28;1431;-57
2022/04/13 04:34:16;;;;;;;;;;;;;;;18.93;63.96;101437.38;5095427;28;1730;-57
2022/04/13 04:36:43;;;;;;;;;;;;;;;19.36;62.95;101442.06;5095181;28;1905;-61
2022/04/13 04:39:09;;;;;;;;;;;;;;;19.83;60.99;101442.78;5095068;28;1388;-61
2022/04/13 04:41:36;;;;;;;;;;;;;;;19.95;60.67;101434.72;5095812;28;1034;-61
2022/04/13 04:44:03;;;;;;;;;;;;;;;20.12;61.26;101436.03;5095105;28;1460;-57
2022/04/13 04:46:29;;;;;;;;;;;;;;;20.31;60.04;101443.41;5094948;28;1722;-58
2022/04/13 04:48:57;;;;;;;;;;;;;;;20.31;60.76;101440.72;5095098;28;1381;-57
2022/04/13 04:51:24;;;;;;;;;;;;;;;20.37;60.55;101437.53;5095338;28;1512;-61
2022/04/13 04:53:50;;;;;;;;;;;;;;;19.89;61.13;101444.13;5095116;28;1372;-57
2022/04/13 04:56:17;;;;;;;;;;;;;;;19.55;61.52;101436.06;5095485;28;1976;-61
2022/04/13 04:58:44;;;;;;;;;;;;;;;19.36;63.43;101465.34;5095085;28;1861;-57
2022/04/13 05:01:10;;;;;;;;;;;;;;;19.18;63.65;101454.22;5094786;28;1774;-61
2022/04/13 05:03:38;;;;;;;;;;;;;;;19.13;63.31;101454.59;5094717;28;1536;-57
2022/04/13 05:06:06;;;;;;;;;;;;;;;19.34;63.67;101462.78;5093250;28;1587;-60
2022/04/13 05:08:32;;;;;;;;;;;;;;;19.93;60.85;101458.16;5094706;28;1024;-60
2022/04/13 05:11:01;;;;;;;;;;;;;;;20.47;59.35;101465.31;5094840;28;1742;-61
2022/04/13 05:13:27;;;;;;;;;;;;;;;20.16;61.14;101475.94;5091905;28;1715;-60
2022/04/13 05:15:54;;;;;;;;;;;;;;;19.86;61.60;101458.66;5089585;28;1910;-56
2022/04/13 05:18:21;;;;;;;;;;;;;;;19.72;62.39;101477.72;5093095;28;1039;-57
2022/04/13 05:20:47;;;;;;;;;;;;;;;19.60;63.40;101474.13;5094800;28;1974;-59
2022/04/13 05:23:16;;;;;;;;;;;;;;;19.56;63.09;101480.72;5094426;28;1770;-61
2022/04/13 05:25:43;;;;;;;;;;;;;;;19.59;64.21;101487.66;5093207;28;1570;-68
2022/04/13 05:28:10;;;;;;;;;;;;;;;20.09;62.59;101481.91;5094636;28;1583;-62
2022/04/13 05:30:36;;;;;;;;;;;;;;;20.34;61.29;101475.41;5090237;28;1197;-57
2022/04/13 05:33:03;;;;;;;;;;;;;;;20.55;61.97;101476.31;5079608;28;1377;-67
2022/04/13 05:35:30;;;;;;;;;;;;;;;20.81;61.31;101463.38;5091587;28;1969;-59
2022/04/13 05:37:57;;;;;;;;;;;;;;;20.86;61.34;101473.72;5078662;28;1735;-62
2022/04/13 05:40:25;;;;;;;;;;;;;;;20.83;61.18;101479.34;5082419;28;1378;-57
2022/04/13 05:42:53;;;;;;;;;;;;;;;20.65;61.61;101488.00;5091084;28;1553;-56
2022/04/13 05:45:19;;;;;;;;;;;;;;;20.34;61.37;101478.09;5088257;28;1545;-61
2022/04/13 05:47:46;;;;;;;;;;;;;;;20.01;62.07;101477.16;5089034;28;1584;-59
2022/04/13 05:50:13;;;;;;;;;;;;;;;19.90;61.58;101470.00;5093774;28;1456;-63
2022/04/13 05:52:40;;;;;;;;;;;;;;;19.92;62.44;101477.94;5093629;28;1389;-57
2022/04/13 05:55:08;;;;;;;;;;;;;;;19.84;62.69;101473.19;5093238;28;1905;-67
2022/04/13 05:57:36;;;;;;;;;;;;;;;20.35;60.89;101477.09;5093182;28;1631;-63
2022/04/13 06:00:04;;;;;;;;;;;;;;;20.71;61.43;101478.59;5093977;28;1465;-61
2022/04/13 06:02:30;;;;;;;;;;;;;;;20.94;61.10;101483.84;5090225;28;1639;-62
2022/04/13 06:04:56;;;;;;;;;;;;;;;20.62;62.60;101482.03;5090215;28;1751;-60
2022/04/13 06:07:23;;;;;;;;;;;;;;;20.34;62.33;101476.25;5094201;28;1267;-61
2022/04/13 06:09:50;;;;;;;;;;;;;;;20.15;63.59;101474.19;5094151;28;1457;-57
2022/04/13 06:12:21;;;;;;;;;;;;;;;20.16;63.45;101481.28;5094058;28;1216;-60
2022/04/13 06:14:49;;;;;;;;;;;;;;;20.13;64.07;101476.16;5092898;28;1289;-64
2022/04/13 06:17:16;;;;;;;;;;;;;;;20.55;62.25;101486.16;5094709;28;1942;-56
2022/04/13 06:19:43;;;;;;;;;;;;;;;20.90;60.85;101472.47;5093925;28;1769;-60
2022/04/13 06:22:09;;;;;;;;;;;;;;;21.23;60.15;101473.28;5093712;28;1446;-57
2022/04/13 06:24:36;;;;;;;;;;;;;;;21.05;60.77;101489.16;5093854;28;1634;-55
2022/04/13 06:27:02;;;;;;;;;;;;;;;20.66;61.61;101478.94;5094196;28;1567;-57
2022/04/13 06:29:29;;;;;;;;;;;;;;;20.45;61.60;101469.97;5093844;28;1600;-66
2022/04/13 06:31:57;;;;;;;;;;;;;;;20.23;63.50;101487.88;5094713;28;995;-65
2022/04/13 06:34:23;;;;;;;;;;;;;;;20.49;62.46;101486.69;5093528;28;1587;-57
2022/04/13 06:36:50;;;;;;;;;;;;;;;20.63;60.83;101498.03;5093477;28;1981;-61
2022/04/13 06:39:16;;;;;;;;;;;;;;;20.83;58.16;101495.47;5094382;28;1583;-55
2022/04/13 06:41:43;;;;;;;;;;;;;;;20.54;58.41;101493.38;5091581;28;1603;-60
2022/04/13 06:44:09;;;;;;;;;;;;;;;20.34;59.31;101486.13;5087818;28;1778;-61
2022/04/13 06:46:36;;;;;;;;;;;;;;;20.28;60.31;101514.34;5087602;28;1218;-60
2022/04/13 06:49:04;;;;;;;;;;;;;;;20.07;60.15;101498.16;5087897;28;1310;-61
2022/04/13 06:51:31;;;;;;;;;;;;;;;20.43;59.44;101490.72;5078563;28;1401;-60
2022/04/13 06:53:58;;;;;;;;;;;;;;;20.92;57.74;101504.63;5085895;28;1326;-57
2022/04/13 06:56:24;;;;;;;;;;;;;;;20.72;56.64;101496.41;5085807;28;1902;-64
2022/04/13 06:58:50;;;;;;;;;;;;;;;20.49;58.92;101492.91;5087307;28;1091;-58
2022/04/13 07:01:17;;;;;;;;;;;;;;;20.34;58.44;101483.44;5082847;28;1769;-60
2022/04/13 07:03:43;;;;;;;;;;;;;;;20.24;59.43;101500.31;5079637;28;1396;-58
2022/04/13 07:06:11;;;;;;;;;;;;;;;20.41;56.72;101474.75;5090129;28;1513;-58
2022/04/13 07:08:38;;;;;;;;;;;;;;;20.79;56.12;101485.97;5095179;28;1541;-56
2022/04/13 07:11:05;;;;;;;;;;;;;;;20.83;56.36;101495.47;5093162;28;1663;-61
2022/04/13 07:13:32;;;;;;;;;;;;;;;20.56;56.77;101496.78;5088542;28;1512;-62
2022/04/13 07:15:59;;;;;;;;;;;;;;;20.39;58.42;101516.16;5085772;28;1905;-64
2022/04/13 07:18:26;;;;;;;;;;;;;;;20.27;58.63;101504.56;5082269;28;1386;-59
2022/04/13 07:20:52;;;;;;;;;;;;;;;20.20;59.75;101492.66;5096887;28;1564;-64
2022/04/13 07:23:20;;;;;;;;;;;;;;;20.09;59.52;101489.97;5095273;28;1707;-59
2022/04/13 07:25:47;;;;;;;;;;;;;;;19.98;58.74;101498.91;5095821;28;1714;-62
2022/04/13 07:28:14;;;;;;;;;;;;;;;19.97;59.48;101513.28;5093073;28;1401;-62
2022/04/13 07:30:40;;;;;;;;;;;;;;;19.95;59.40;101494.63;5088730;28;1668;-67
2022/04/13 07:33:07;;;;;;;;;;;;;;;19.95;59.58;101500.00;5095501;28;1517;-63
2022/04/13 07:35:34;;;;;;;;;;;;;;;20.01;59.59;101490.59;5091723;28;1906;-63
2022/04/13 07:38:00;;;;;;;;;;;;;;;19.98;59.24;101498.91;5094974;28;1695;-64
2022/04/13 07:40:28;;;;;;;;;;;;;;;20.05;61.29;101498.28;5086490;28;1746;-65
2022/04/13 07:42:55;;;;;;;;;;;;;;;20.09;60.90;101496.19;5091440;28;1443;-62
2022/04/13 07:45:21;;;;;;;;;;;;;;;20.03;59.90;101520.84;5094100;28;1297;-59
2022/04/13 07:47:48;;;;;;;;;;;;;;;20.08;60.63;101505.25;5083812;28;1320;-65
2022/04/13 07:50:15;;;;;;;;;;;;;;;20.15;60.19;101497.53;5081848;28;1223;-69
2022/04/13 07:52:42;;;;;;;;;;;;;;;20.21;59.15;101505.97;5080820;28;1237;-70
2022/04/13 07:55:09;;;;;;;;;;;;;;;20.13;59.92;101503.00;5087784;28;1606;-72
2022/04/13 07:57:38;;;;;;;;;;;;;;;20.03;59.86;101489.50;5087667;28;1909;-67
2022/04/13 08:00:05;;;;;;;;;;;;;;;19.97;59.95;101499.88;5092420;28;1398;-65
2022/04/13 08:02:34;;;;;;;;;;;;;;;19.92;60.21;101504.78;5077799;28;1384;-71
2022/04/13 08:05:02;;;;;;;;;;;;;;;19.89;59.18;101495.13;5081358;28;1355;-69
2022/04/13 08:07:29;;;;;;;;;;;;;;;19.85;58.36;101489.13;5076466;28;1491;-68
2022/04/13 08:09:55;;;;;;;;;;;;;;;19.83;59.37;101496.47;5089102;28;1241;-63
2022/04/13 08:12:22;;;;;;;;;;;;;;;19.84;59.42;101492.81;5088093;28;1294;-66
2022/04/13 08:14:50;;;;;;;;;;;;;;;19.80;59.92;101507.47;5086426;28;1378;-67
2022/04/13 08:17:17;;;;;;;;;;;;;;;19.79;59.28;101505.75;5087761;28;1984;-68
2022/04/13 08:19:44;;;;;;;;;;;;;;;19.77;58.83;101507.69;5082309;28;1347;-67
2022/04/13 08:22:10;;;;;;;;;;;;;;;19.75;59.47;101490.88;5083517;28;1393;-66
2022/04/13 08:24:37;;;;;;;;;;;;;;;19.74;59.12;101485.63;5086105;28;1428;-68
2022/04/13 08:27:04;;;;;;;;;;;;;;;19.79;57.72;101512.94;5086014;28;1273;-71
2022/04/13 08:29:30;;;;;;;;;;;;;;;19.78;58.94;101503.19;5081699;28;1445;-67
2022/04/13 08:31:58;;;;;;;;;;;;;;;19.76;59.81;101500.63;5081983;28;1070;-67
2022/04/13 08:34:25;;;;;;;;;;;;;;;19.71;58.43;101483.16;5082875;28;1421;-66
2022/04/13 08:36:51;;;;;;;;;;;;;;;19.75;60.01;101490.88;5081373;28;1886;-71
2022/04/13 08:39:17;;;;;;;;;;;;;;;19.82;58.74;101494.78;5086295;28;1393;-66
2022/04/13 08:41:48;;;;;;;;;;;;;;;19.91;59.06;101487.81;5082818;28;1064;-63
2022/04/13 08:44:17;;;;;;;;;;;;;;;19.95;58.38;101483.03;5089249;28;1122;-65
2022/04/13 08:46:44;;;;;;;;;;;;;;;19.98;58.77;101464.00;5086236;28;1349;-65
2022/04/13 08:49:13;;;;;;;;;;;;;;;19.97;58.94;101464.97;5080389;28;1417;-61
2022/04/13 08:51:40;;;;;;;;;;;;;;;19.91;60.17;101476.22;5080663;28;1395;-64
2022/04/13 08:54:11;;;;;;;;;;;;;;;19.95;60.33;101478.53;5088784;28;1298;-64
2022/04/13 08:56:40;;;;;;;;;;;;;;;19.96;60.55;101479.41;5086225;28;1953;-72
2022/04/13 08:59:10;;;;;;;;;;;;;;;20.00;61.10;101462.06;5082500;28;1385;-65
2022/04/13 09:01:38;;;;;;;;;;;;;;;20.07;60.19;101476.66;5082097;28;1345;-59
2022/04/13 09:04:07;;;;;;;;;;;;;;;20.04;59.65;101474.25;5078976;28;1484;-62
2022/04/13 09:06:36;;;;;;;;;;;;;;;19.99;60.31;101469.22;5083497;28;1444;-66
2022/04/13 09:09:06;;;;;;;;;;;;;;;20.01;60.49;101467.28;5091010;28;1479;-63
2022/04/13 09:11:34;;;;;;;;;;;;;;;20.00;60.52;101459.38;5093083;28;1575;-60
2022/04/13 09:14:03;;;;;;;;;;;;;;;20.07;60.32;101460.56;5086958;28;1526;-59
2022/04/13 09:16:30;;;;;;;;;;;;;;;20.12;61.48;101461.03;5093976;28;1902;-61
2022/04/13 09:18:57;;;;;;;;;;;;;;;20.00;61.42;101449.47;5091124;28;1707;-57
2022/04/13 09:21:26;;;;;;;;;;;;;;;19.88;60.97;101444.28;5094384;28;1512;-62
2022/04/13 09:23:54;;;;;;;;;;;;;;;19.74;62.53;101431.97;5094194;28;1365;-59
2022/04/13 09:26:21;;;;;;;;;;;;;;;19.68;62.19;101439.50;5091512;28;1529;-57
2022/04/13 09:28:48;;;;;;;;;;;;;;;19.68;60.05;101444.84;5094567;28;1375;-58
2022/04/13 09:31:14;;;;;;;;;;;;;;;19.68;60.33;101426.06;5090839;28;1718;-67
2022/04/13 09:33:41;;;;;;;;;;;;;;;19.65;61.03;101433.50;5094469;28;1470;-58
2022/04/13 09:36:07;;;;;;;;;;;;;;;19.70;61.48;101436.69;5094599;28;2356;-56
2022/04/13 09:38:35;;;;;;;;;;;;;;;19.62;60.22;101423.06;5094374;28;1485;-56
2022/04/13 09:41:10;;;;;;;;;;;;;;;19.59;61.51;101424.13;5092062;28;1778;-57
2022/04/13 09:43:37;;;;;;;;;;;;;;;19.58;61.51;101426.97;5093184;28;1536;-56
2022/04/13 09:46:03;;;;;;;;;;;;;;;19.48;61.57;101427.69;5092949;28;1516;-57
2022/04/13 09:48:30;;;;;;;;;;;;;;;19.43;60.64;101408.41;5076272;28;1624;-63
2022/04/13 09:50:58;;;;;;;;;;;;;;;19.34;61.87;101411.84;5090835;28;1195;-63
2022/04/13 09:53:24;;;;;;;;;;;;;;;19.29;61.91;101411.34;5089713;28;1560;-63
2022/04/13 09:55:53;;;;;;;;;;;;;;;19.30;61.19;101407.69;5090468;28;1590;-63
2022/04/13 09:58:22;;;;;;;;;;;;;;;19.28;61.85;101399.78;5090967;28;1902;-64
2022/04/13 10:00:49;;;;;;;;;;;;;;;19.27;62.00;101397.19;5088142;28;1572;-56
2022/04/13 10:03:17;;;;;;;;;;;;;;;19.33;61.89;101406.59;5086637;28;899;-64
2022/04/13 10:05:44;;;;;;;;;;;;;;;19.31;62.28;101395.97;5083684;28;1980;-64
2022/04/13 10:08:11;;;;;;;;;;;;;;;19.33;62.53;101402.06;5090639;28;1374;-56
2022/04/13 10:10:40;;;;;;;;;;;;;;;19.29;62.09;101395.25;5087693;28;1988;-63
2022/04/13 10:13:07;;;;;;;;;;;;;;;19.32;61.42;101400.38;5088305;28;1393;-56
2022/04/13 10:15:35;;;;;;;;;;;;;;;19.33;62.03;101396.72;5090935;28;1588;-63
2022/04/13 10:18:04;;;;;;;;;;;;;;;19.31;61.55;101398.66;5089252;28;1905;-56
2022/04/13 10:20:42;;;;;;;;;;;;;;;19.28;62.42;101388.19;5084427;28;1634;-56
2022/04/13 10:23:09;;;;;;;;;;;;;;;19.27;62.15;101389.16;5088313;28;1351;-56
2022/04/13 10:25:35;;;;;;;;;;;;;;;19.29;62.41;101392.56;5088399;28;1509;-63
2022/04/13 10:28:02;;;;;;;;;;;;;;;19.26;61.66;101391.00;5088824;28;1505;-63
2022/04/13 10:30:29;;;;;;;;;;;;;;;19.26;62.28;101392.84;5092270;28;1634;-64
2022/04/13 10:33:02;;;;;;;;;;;;;;;19.29;62.06;101389.88;5095103;28;1875;-57
2022/04/13 10:35:29;;;;;;;;;;;;;;;19.28;62.48;101385.50;5092752;28;1508;-56
2022/04/13 10:37:56;;;;;;;;;;;;;;;19.30;62.14;101377.31;5092592;28;1977;-64
2022/04/13 10:40:24;;;;;;;;;;;;;;;19.25;61.78;101383.06;5094457;28;1579;-56
2022/04/13 10:42:51;;;;;;;;;;;;;;;19.24;62.68;101384.06;5093449;28;1283;-63
2022/04/13 10:45:18;;;;;;;;;;;;;;;19.23;62.49;101379.66;5092760;28;1654;-56
2022/04/13 10:47:50;;;;;;;;;;;;;;;19.25;62.66;101369.66;5093160;28;1861;-64
2022/04/13 10:50:21;;;;;;;;;;;;;;;19.32;61.07;101372.69;5088548;28;1672;-64
2022/04/13 10:52:55;;;;;;;;;;;;;;;19.32;61.99;101378.94;5093314;28;1497;-69
2022/04/13 10:55:22;;;;;;;;;;;;;;;19.30;62.44;101391.63;5092889;28;1444;-58
2022/04/13 10:57:51;;;;;;;;;;;;;;;19.27;61.20;101381.13;5096637;28;1959;-58
2022/04/13 11:00:19;;;;;;;;;;;;;;;19.28;62.01;101377.47;5093983;28;1541;-58
2022/04/13 11:02:49;;;;;;;;;;;;;;;19.29;61.33;101379.16;5089471;28;1551;-66
2022/04/13 11:05:15;;;;;;;;;;;;;;;19.27;61.42;101365.03;5091735;28;1453;-59
2022/04/13 11:07:44;;;;;;;;;;;;;;;19.34;61.70;101370.75;5094922;28;1687;-67
2022/04/13 11:10:20;;;;;;;;;;;;;;;19.26;61.17;101369.53;5094351;28;1548;-67
2022/04/13 11:12:47;;;;;;;;;;;;;;;19.27;61.72;101365.03;5093109;28;1699;-66
2022/04/13 11:15:13;;;;;;;;;;;;;;;19.23;61.85;101359.06;5094303;28;1636;-65
2022/04/13 11:17:43;;;;;;;;;;;;;;;19.17;61.77;101354.19;5092161;28;1901;-65
2022/04/13 11:20:17;;;;;;;;;;;;;;;19.27;61.22;101363.19;5087850;28;1793;-66
2022/04/13 11:22:45;;;;;;;;;;;;;;;19.22;62.19;101351.16;5091597;28;1445;-59
2022/04/13 11:25:32;;;;;;;;;;;;;;;19.18;62.73;101355.03;5095100;28;1436;-65
2022/04/13 11:27:59;;;;;;;;;;;;;;;19.17;61.59;101358.69;5090472;28;1468;-60
2022/04/13 11:30:26;;;;;;;;;;;;;;;19.16;62.18;101335.53;5087699;28;1397;-63
2022/04/13 11:32:52;;;;;;;;;;;;;;;19.18;62.71;101365.75;5097251;28;1032;-60
2022/04/13 11:35:26;;;;;;;;;;;;;;;19.10;61.69;101341.38;5096749;28;1702;-59
2022/04/13 11:38:06;;;;;;;;;;;;;;;19.09;62.50;101351.25;5096440;28;1979;-59
2022/04/13 11:40:33;;;;;;;;;;;;;;;19.14;62.53;101348.19;5092474;28;1627;-67
2022/04/13 11:43:01;;;;;;;;;;;;;;;19.12;61.83;101334.06;5094584;28;1710;-66
2022/04/13 11:45:29;;;;;;;;;;;;;;;19.17;61.92;101343.44;5095762;28;1381;-67
2022/04/13 11:47:58;;;;;;;;;;;;;;;19.09;62.50;101337.84;5094253;28;1309;-68
2022/04/13 11:50:26;;;;;;;;;;;;;;;19.15;62.03;101340.03;5097011;28;1575;-60
2022/04/13 11:52:53;;;;;;;;;;;;;;;19.19;62.46;101320.06;5096386;28;1435;-58
2022/04/13 11:55:22;;;;;;;;;;;;;;;19.24;62.21;101327.75;5092065;28;1568;-63
2022/04/13 11:58:07;;;;;;;;;;;;;;;19.16;62.80;101330.16;5095228;28;1906;-64
2022/04/13 12:00:37;;;;;;;;;;;;;;;19.14;62.84;101322.28;5092012;28;1927;-57
2022/04/13 12:03:05;;;;;;;;;;;;;;;19.14;63.05;101330.31;5096906;28;1050;-58
2022/04/13 12:05:31;;;;;;;;;;;;;;;19.12;62.43;101323.34;5095171;28;1734;-57
2022/04/13 12:07:59;;;;;;;;;;;;;;;19.11;62.92;101319.81;5091163;28;1707;-63
2022/04/13 12:10:36;;;;;;;;;;;;;;;19.10;63.52;101318.13;5094667;28;1584;-61
2022/04/13 12:13:03;;;;;;;;;;;;;;;19.13;62.42;101320.53;5095931;28;1594;-55
2022/04/13 12:15:40;;;;;;;;;;;;;;;19.76;61.64;101312.78;5094617;28;1703;-56
2022/04/13 12:18:07;;;;;;;;;;;;;;;20.32;60.11;101297.41;5096789;28;1910;-56
2022/04/13 12:20:34;;;;;;;;;;;;;;;20.63;59.41;101331.44;5092575;28;1401;-56
2022/04/13 12:23:14;;;;;;;;;;;;;;;20.45;59.16;101315.03;5094209;28;1750;-56
2022/04/13 12:25:43;;;;;;;;;;;;;;;19.90;60.46;101318.84;5090186;28;1864;-56
2022/04/13 12:28:10;;;;;;;;;;;;;;;19.62;60.75;101316.56;5095505;28;1548;-65
2022/04/13 12:30:37;;;;;;;;;;;;;;;19.57;62.30;101307.19;5093629;28;1397;-58
2022/04/13 12:33:12;;;;;;;;;;;;;;;19.47;62.23;101307.09;5082560;28;1509;-58
2022/04/13 12:35:46;;;;;;;;;;;;;;;19.76;62.07;101296.69;5092499;28;1520;-61
2022/04/13 12:38:20;;;;;;;;;;;;;;;20.20;60.63;101305.50;5094240;28;1984;-57
2022/04/13 12:40:48;;;;;;;;;;;;;;;20.33;60.35;101293.72;5095085;28;1766;-59
2022/04/13 12:43:25;;;;;;;;;;;;;;;19.97;60.46;101295.84;5091991;28;1619;-64
2022/04/13 12:45:52;;;;;;;;;;;;;;;19.77;60.95;101292.16;5094992;28;1564;-57
2022/04/13 12:48:19;;;;;;;;;;;;;;;19.75;61.24;101289.59;5095989;28;1049;-64
2022/04/13 12:50:54;;;;;;;;;;;;;;;20.18;61.21;101286.00;5094533;28;1563;-57
2022/04/13 12:53:21;;;;;;;;;;;;;;;20.10;61.12;101283.09;5087105;28;1758;-62